sensor_id;sensor_type;location;lat;lon;timestamp;temperature;humidity
48946;DHT22;34999;50.940;3.998;2022-09-09T00:01:04;14.00;99.90
48946;DHT22;34999;50.940;3.998;2022-09-09T00:03:45;14.00;99.90
48946;DHT22;34999;50.940;3.998;2022-09-09T00:06:21;14.00;99.90
48946;DHT22;34999;50.940;3.998;2022-09-09T00:09:00;13.90;99.90
48946;DHT22;34999;50.940;3.998;2022-09-09T00:11:32;14.00;99.90
48946;DHT22;34999;50.940;3.998;2022-09-09T00:14:11;13.90;99.90
48946;DHT22;34999;50.940;3.998;2022-09-09T00:16:49;14.00;99.90
48946;DHT22;34999;50.940;3.998;2022-09-09T00:19:24;14.00;99.90
48946;DHT22;34999;50.940;3.998;2022-09-09T00:22:08;14.00;99.90
48946;DHT22;34999;50.940;3.998;2022-09-09T00:24:44;14.00;99.90
48946;DHT22;34999;50.940;3.998;2022-09-09T00:27:19;14.00;99.90
48946;DHT22;34999;50.940;3.998;2022-09-09T00:29:53;14.00;99.90
48946;DHT22;34999;50.940;3.998;2022-09-09T00:32:25;14.00;99.90
48946;DHT22;34999;50.940;3.998;2022-09-09T00:35:02;14.00;99.90
48946;DHT22;34999;50.940;3.998;2022-09-09T00:37:31;14.00;99.90
48946;DHT22;34999;50.940;3.998;2022-09-09T00:40:02;14.10;99.90
48946;DHT22;34999;50.940;3.998;2022-09-09T00:42:41;14.00;99.90
48946;DHT22;34999;50.940;3.998;2022-09-09T00:45:24;14.00;99.90
48946;DHT22;34999;50.940;3.998;2022-09-09T00:48:04;14.10;99.90
48946;DHT22;34999;50.940;3.998;2022-09-09T00:50:43;14.10;99.90
48946;DHT22;34999;50.940;3.998;2022-09-09T00:53:23;14.10;99.90
48946;DHT22;34999;50.940;3.998;2022-09-09T00:55:59;14.10;99.90
48946;DHT22;34999;50.940;3.998;2022-09-09T00:58:29;14.10;99.90
48946;DHT22;34999;50.940;3.998;2022-09-09T01:01:02;14.00;99.90
48946;DHT22;34999;50.940;3.998;2022-09-09T01:03:37;14.00;99.90
48946;DHT22;34999;50.940;3.998;2022-09-09T01:06:16;14.00;99.90
48946;DHT22;34999;50.940;3.998;2022-09-09T01:09:04;14.00;99.90
48946;DHT22;34999;50.940;3.998;2022-09-09T01:11:44;14.00;99.90
48946;DHT22;34999;50.940;3.998;2022-09-09T01:14:23;14.00;99.90
48946;DHT22;34999;50.940;3.998;2022-09-09T01:16:57;14.00;99.90
48946;DHT22;34999;50.940;3.998;2022-09-09T01:19:38;14.00;99.90
48946;DHT22;34999;50.940;3.998;2022-09-09T01:22:15;14.00;99.90
48946;DHT22;34999;50.940;3.998;2022-09-09T01:25:11;14.00;99.90
48946;DHT22;34999;50.940;3.998;2022-09-09T01:27:44;14.00;99.90
48946;DHT22;34999;50.940;3.998;2022-09-09T01:30:14;14.00;99.90
48946;DHT22;34999;50.940;3.998;2022-09-09T01:32:45;13.90;99.90
48946;DHT22;34999;50.940;3.998;2022-09-09T01:35:22;14.00;99.90
48946;DHT22;34999;50.940;3.998;2022-09-09T01:37:57;13.90;99.90
48946;DHT22;34999;50.940;3.998;2022-09-09T01:40:26;14.00;99.90
48946;DHT22;34999;50.940;3.998;2022-09-09T01:42:56;13.90;99.90
48946;DHT22;34999;50.940;3.998;2022-09-09T01:45:25;13.90;99.90
48946;DHT22;34999;50.940;3.998;2022-09-09T01:47:53;13.90;99.90
48946;DHT22;34999;50.940;3.998;2022-09-09T01:50:21;13.90;99.90
48946;DHT22;34999;50.940;3.998;2022-09-09T01:52:53;13.90;99.90
48946;DHT22;34999;50.940;3.998;2022-09-09T01:55:29;13.90;99.90
48946;DHT22;34999;50.940;3.998;2022-09-09T01:58:11;13.90;99.90
48946;DHT22;34999;50.940;3.998;2022-09-09T02:00:48;13.90;99.90
48946;DHT22;34999;50.940;3.998;2022-09-09T02:03:23;13.90;99.90
48946;DHT22;34999;50.940;3.998;2022-09-09T02:06:00;13.90;99.90
48946;DHT22;34999;50.940;3.998;2022-09-09T02:08:36;14.00;99.90
48946;DHT22;34999;50.940;3.998;2022-09-09T02:11:11;14.00;99.90
48946;DHT22;34999;50.940;3.998;2022-09-09T02:13:44;14.00;99.90
48946;DHT22;34999;50.940;3.998;2022-09-09T02:16:17;14.00;99.90
48946;DHT22;34999;50.940;3.998;2022-09-09T02:18:51;14.00;99.90
48946;DHT22;34999;50.940;3.998;2022-09-09T02:21:21;14.00;99.90
48946;DHT22;34999;50.940;3.998;2022-09-09T02:23:51;14.00;99.90
48946;DHT22;34999;50.940;3.998;2022-09-09T02:26:22;14.00;99.90
48946;DHT22;34999;50.940;3.998;2022-09-09T02:28:55;14.10;99.90
48946;DHT22;34999;50.940;3.998;2022-09-09T02:31:25;14.10;99.90
48946;DHT22;34999;50.940;3.998;2022-09-09T02:33:57;14.10;99.90
48946;DHT22;34999;50.940;3.998;2022-09-09T02:36:31;14.10;99.90
48946;DHT22;34999;50.940;3.998;2022-09-09T02:39:02;14.10;99.90
48946;DHT22;34999;50.940;3.998;2022-09-09T02:41:36;14.10;99.90
48946;DHT22;34999;50.940;3.998;2022-09-09T02:44:12;14.20;99.90
48946;DHT22;34999;50.940;3.998;2022-09-09T02:46:53;14.20;99.90
48946;DHT22;34999;50.940;3.998;2022-09-09T02:49:27;14.20;99.90
48946;DHT22;34999;50.940;3.998;2022-09-09T02:52:01;14.20;99.90
48946;DHT22;34999;50.940;3.998;2022-09-09T02:54:31;14.30;99.90
48946;DHT22;34999;50.940;3.998;2022-09-09T02:57:04;14.30;99.90
48946;DHT22;34999;50.940;3.998;2022-09-09T02:59:36;14.30;99.90
48946;DHT22;34999;50.940;3.998;2022-09-09T03:02:04;14.30;99.90
48946;DHT22;34999;50.940;3.998;2022-09-09T03:04:33;14.20;99.90
48946;DHT22;34999;50.940;3.998;2022-09-09T03:07:01;14.30;99.90
48946;DHT22;34999;50.940;3.998;2022-09-09T03:09:30;14.30;99.90
48946;DHT22;34999;50.940;3.998;2022-09-09T03:11:59;14.30;99.90
48946;DHT22;34999;50.940;3.998;2022-09-09T03:14:27;14.30;99.90
48946;DHT22;34999;50.940;3.998;2022-09-09T03:16:58;14.40;99.90
48946;DHT22;34999;50.940;3.998;2022-09-09T03:19:28;14.30;99.90
48946;DHT22;34999;50.940;3.998;2022-09-09T03:21:58;14.30;99.90
48946;DHT22;34999;50.940;3.998;2022-09-09T03:24:27;14.30;99.90
48946;DHT22;34999;50.940;3.998;2022-09-09T03:26:55;14.30;99.90
48946;DHT22;34999;50.940;3.998;2022-09-09T03:29:24;14.30;99.90
48946;DHT22;34999;50.940;3.998;2022-09-09T03:31:52;14.40;99.90
48946;DHT22;34999;50.940;3.998;2022-09-09T03:34:22;14.40;99.90
48946;DHT22;34999;50.940;3.998;2022-09-09T03:36:50;14.40;99.90
48946;DHT22;34999;50.940;3.998;2022-09-09T03:39:19;14.40;99.90
48946;DHT22;34999;50.940;3.998;2022-09-09T03:41:47;14.50;99.90
48946;DHT22;34999;50.940;3.998;2022-09-09T03:44:15;14.50;99.90
48946;DHT22;34999;50.940;3.998;2022-09-09T03:46:43;14.60;99.90
48946;DHT22;34999;50.940;3.998;2022-09-09T03:49:12;14.60;99.90
48946;DHT22;34999;50.940;3.998;2022-09-09T03:51:42;14.60;99.90
48946;DHT22;34999;50.940;3.998;2022-09-09T03:54:10;14.60;99.90
48946;DHT22;34999;50.940;3.998;2022-09-09T03:56:39;14.70;99.90
48946;DHT22;34999;50.940;3.998;2022-09-09T03:59:08;14.70;99.90
48946;DHT22;34999;50.940;3.998;2022-09-09T04:01:36;14.70;99.90
48946;DHT22;34999;50.940;3.998;2022-09-09T04:04:07;14.70;99.90
48946;DHT22;34999;50.940;3.998;2022-09-09T04:06:35;14.70;99.90
48946;DHT22;34999;50.940;3.998;2022-09-09T04:09:05;14.70;99.90
48946;DHT22;34999;50.940;3.998;2022-09-09T04:11:33;14.70;99.90
48946;DHT22;34999;50.940;3.998;2022-09-09T04:14:02;14.70;99.90
48946;DHT22;34999;50.940;3.998;2022-09-09T04:16:31;14.70;99.90
48946;DHT22;34999;50.940;3.998;2022-09-09T04:18:59;14.70;99.90
48946;DHT22;34999;50.940;3.998;2022-09-09T04:21:28;14.80;99.90
48946;DHT22;34999;50.940;3.998;2022-09-09T04:23:56;14.80;99.90
48946;DHT22;34999;50.940;3.998;2022-09-09T04:26:26;14.80;99.90
48946;DHT22;34999;50.940;3.998;2022-09-09T04:28:54;14.80;99.90
48946;DHT22;34999;50.940;3.998;2022-09-09T04:31:23;14.80;99.90
48946;DHT22;34999;50.940;3.998;2022-09-09T04:33:51;14.80;99.90
48946;DHT22;34999;50.940;3.998;2022-09-09T04:36:20;14.80;99.90
48946;DHT22;34999;50.940;3.998;2022-09-09T04:38:49;14.90;99.90
48946;DHT22;34999;50.940;3.998;2022-09-09T04:41:17;14.90;99.90
48946;DHT22;34999;50.940;3.998;2022-09-09T04:43:46;14.90;99.90
48946;DHT22;34999;50.940;3.998;2022-09-09T04:46:15;14.90;99.90
48946;DHT22;34999;50.940;3.998;2022-09-09T04:48:44;14.90;99.90
48946;DHT22;34999;50.940;3.998;2022-09-09T04:51:14;14.90;99.90
48946;DHT22;34999;50.940;3.998;2022-09-09T04:53:42;14.80;99.90
48946;DHT22;34999;50.940;3.998;2022-09-09T04:56:12;14.80;99.90
48946;DHT22;34999;50.940;3.998;2022-09-09T04:58:41;14.80;99.90
48946;DHT22;34999;50.940;3.998;2022-09-09T05:01:12;14.90;99.90
48946;DHT22;34999;50.940;3.998;2022-09-09T05:03:42;14.90;99.90
48946;DHT22;34999;50.940;3.998;2022-09-09T05:06:13;15.00;99.90
48946;DHT22;34999;50.940;3.998;2022-09-09T05:08:42;15.00;99.90
48946;DHT22;34999;50.940;3.998;2022-09-09T05:11:15;15.00;99.90
48946;DHT22;34999;50.940;3.998;2022-09-09T05:13:44;15.00;99.90
48946;DHT22;34999;50.940;3.998;2022-09-09T05:16:15;15.00;99.90
48946;DHT22;34999;50.940;3.998;2022-09-09T05:18:44;15.00;99.90
48946;DHT22;34999;50.940;3.998;2022-09-09T05:21:14;15.10;99.90
48946;DHT22;34999;50.940;3.998;2022-09-09T05:23:44;15.10;99.90
48946;DHT22;34999;50.940;3.998;2022-09-09T05:26:14;15.10;99.90
48946;DHT22;34999;50.940;3.998;2022-09-09T05:28:44;15.10;99.90
48946;DHT22;34999;50.940;3.998;2022-09-09T05:31:17;15.10;99.90
48946;DHT22;34999;50.940;3.998;2022-09-09T05:33:48;15.10;99.90
48946;DHT22;34999;50.940;3.998;2022-09-09T05:36:19;15.10;99.90
48946;DHT22;34999;50.940;3.998;2022-09-09T05:38:47;15.10;99.90
48946;DHT22;34999;50.940;3.998;2022-09-09T05:41:16;15.10;99.90
48946;DHT22;34999;50.940;3.998;2022-09-09T05:43:46;15.10;99.90
48946;DHT22;34999;50.940;3.998;2022-09-09T05:46:18;15.20;99.90
48946;DHT22;34999;50.940;3.998;2022-09-09T05:48:49;15.20;99.90
48946;DHT22;34999;50.940;3.998;2022-09-09T05:51:20;15.10;99.90
48946;DHT22;34999;50.940;3.998;2022-09-09T05:53:49;15.20;99.90
48946;DHT22;34999;50.940;3.998;2022-09-09T05:56:21;15.20;99.90
48946;DHT22;34999;50.940;3.998;2022-09-09T05:58:52;15.30;99.90
48946;DHT22;34999;50.940;3.998;2022-09-09T06:01:24;15.30;99.90
48946;DHT22;34999;50.940;3.998;2022-09-09T06:03:53;15.30;99.90
48946;DHT22;34999;50.940;3.998;2022-09-09T06:06:23;15.30;99.90
48946;DHT22;34999;50.940;3.998;2022-09-09T06:08:54;15.30;99.90
48946;DHT22;34999;50.940;3.998;2022-09-09T06:11:25;15.30;99.90
48946;DHT22;34999;50.940;3.998;2022-09-09T06:13:53;15.30;99.90
48946;DHT22;34999;50.940;3.998;2022-09-09T06:16:24;15.40;99.90
48946;DHT22;34999;50.940;3.998;2022-09-09T06:18:54;15.40;99.90
48946;DHT22;34999;50.940;3.998;2022-09-09T06:21:24;15.40;99.90
48946;DHT22;34999;50.940;3.998;2022-09-09T06:23:53;15.50;99.90
48946;DHT22;34999;50.940;3.998;2022-09-09T06:26:28;15.50;99.90
48946;DHT22;34999;50.940;3.998;2022-09-09T06:28:58;15.50;99.90
48946;DHT22;34999;50.940;3.998;2022-09-09T06:31:29;15.50;99.90
48946;DHT22;34999;50.940;3.998;2022-09-09T06:33:58;15.50;99.90
48946;DHT22;34999;50.940;3.998;2022-09-09T06:36:28;15.60;99.90
48946;DHT22;34999;50.940;3.998;2022-09-09T06:38:58;15.60;99.90
48946;DHT22;34999;50.940;3.998;2022-09-09T06:41:27;15.70;99.90
48946;DHT22;34999;50.940;3.998;2022-09-09T06:43:56;15.80;99.90
48946;DHT22;34999;50.940;3.998;2022-09-09T06:46:26;15.80;99.90
48946;DHT22;34999;50.940;3.998;2022-09-09T06:48:56;15.90;99.90
48946;DHT22;34999;50.940;3.998;2022-09-09T06:51:28;16.10;99.90
48946;DHT22;34999;50.940;3.998;2022-09-09T06:53:58;16.10;99.90
48946;DHT22;34999;50.940;3.998;2022-09-09T06:56:28;16.20;99.90
48946;DHT22;34999;50.940;3.998;2022-09-09T06:58:59;16.20;99.90
48946;DHT22;34999;50.940;3.998;2022-09-09T07:01:29;16.10;99.90
48946;DHT22;34999;50.940;3.998;2022-09-09T07:04:01;16.10;99.90
48946;DHT22;34999;50.940;3.998;2022-09-09T07:06:33;16.10;99.90
48946;DHT22;34999;50.940;3.998;2022-09-09T07:09:04;16.10;99.90
48946;DHT22;34999;50.940;3.998;2022-09-09T07:11:34;16.10;99.90
48946;DHT22;34999;50.940;3.998;2022-09-09T07:14:04;16.10;99.90
48946;DHT22;34999;50.940;3.998;2022-09-09T07:16:33;16.10;99.90
48946;DHT22;34999;50.940;3.998;2022-09-09T07:19:05;16.00;99.90
48946;DHT22;34999;50.940;3.998;2022-09-09T07:21:34;16.00;99.90
48946;DHT22;34999;50.940;3.998;2022-09-09T07:24:02;16.00;99.90
48946;DHT22;34999;50.940;3.998;2022-09-09T07:26:34;16.00;99.90
48946;DHT22;34999;50.940;3.998;2022-09-09T07:29:03;16.00;99.90
48946;DHT22;34999;50.940;3.998;2022-09-09T07:31:34;16.10;99.90
48946;DHT22;34999;50.940;3.998;2022-09-09T07:34:05;16.00;99.90
48946;DHT22;34999;50.940;3.998;2022-09-09T07:36:35;16.00;99.90
48946;DHT22;34999;50.940;3.998;2022-09-09T07:39:06;16.00;99.90
48946;DHT22;34999;50.940;3.998;2022-09-09T07:41:36;16.10;99.90
48946;DHT22;34999;50.940;3.998;2022-09-09T07:44:05;16.20;99.90
48946;DHT22;34999;50.940;3.998;2022-09-09T07:46:54;16.30;99.90
48946;DHT22;34999;50.940;3.998;2022-09-09T07:49:24;16.40;99.90
48946;DHT22;34999;50.940;3.998;2022-09-09T07:51:59;16.50;99.90
48946;DHT22;34999;50.940;3.998;2022-09-09T07:54:27;16.70;99.90
48946;DHT22;34999;50.940;3.998;2022-09-09T07:56:55;16.70;99.90
48946;DHT22;34999;50.940;3.998;2022-09-09T07:59:26;16.80;99.90
48946;DHT22;34999;50.940;3.998;2022-09-09T08:01:56;16.80;99.90
48946;DHT22;34999;50.940;3.998;2022-09-09T08:04:29;16.80;99.90
48946;DHT22;34999;50.940;3.998;2022-09-09T08:06:59;16.80;99.90
48946;DHT22;34999;50.940;3.998;2022-09-09T08:09:28;16.80;99.90
48946;DHT22;34999;50.940;3.998;2022-09-09T08:11:57;16.70;99.90
48946;DHT22;34999;50.940;3.998;2022-09-09T08:14:27;16.70;99.90
48946;DHT22;34999;50.940;3.998;2022-09-09T08:16:56;16.80;99.90
48946;DHT22;34999;50.940;3.998;2022-09-09T08:19:25;16.70;99.90
48946;DHT22;34999;50.940;3.998;2022-09-09T08:21:57;16.70;99.90
48946;DHT22;34999;50.940;3.998;2022-09-09T08:24:26;16.70;99.90
48946;DHT22;34999;50.940;3.998;2022-09-09T08:26:54;16.60;99.90
48946;DHT22;34999;50.940;3.998;2022-09-09T08:29:23;16.60;99.90
48946;DHT22;34999;50.940;3.998;2022-09-09T08:31:54;16.60;99.90
48946;DHT22;34999;50.940;3.998;2022-09-09T08:34:25;16.50;99.90
48946;DHT22;34999;50.940;3.998;2022-09-09T08:36:54;16.50;99.90
48946;DHT22;34999;50.940;3.998;2022-09-09T08:39:23;16.50;99.90
48946;DHT22;34999;50.940;3.998;2022-09-09T08:42:16;16.50;99.90
48946;DHT22;34999;50.940;3.998;2022-09-09T08:45:09;16.50;99.90
48946;DHT22;34999;50.940;3.998;2022-09-09T08:47:49;16.50;99.90
48946;DHT22;34999;50.940;3.998;2022-09-09T08:50:24;16.50;99.90
48946;DHT22;34999;50.940;3.998;2022-09-09T08:52:59;16.50;99.90
48946;DHT22;34999;50.940;3.998;2022-09-09T08:55:37;16.50;99.90
48946;DHT22;34999;50.940;3.998;2022-09-09T08:58:13;16.50;99.90
48946;DHT22;34999;50.940;3.998;2022-09-09T09:03:52;16.60;99.90
48946;DHT22;34999;50.940;3.998;2022-09-09T09:06:34;16.60;99.90
48946;DHT22;34999;50.940;3.998;2022-09-09T09:09:10;16.70;99.90
48946;DHT22;34999;50.940;3.998;2022-09-09T09:11:45;16.80;99.90
48946;DHT22;34999;50.940;3.998;2022-09-09T09:14:19;16.80;99.90
48946;DHT22;34999;50.940;3.998;2022-09-09T09:16:53;16.90;99.90
48946;DHT22;34999;50.940;3.998;2022-09-09T09:19:22;16.90;99.90
48946;DHT22;34999;50.940;3.998;2022-09-09T09:21:59;16.90;99.90
48946;DHT22;34999;50.940;3.998;2022-09-09T09:24:37;16.90;99.90
48946;DHT22;34999;50.940;3.998;2022-09-09T09:27:13;16.90;99.90
48946;DHT22;34999;50.940;3.998;2022-09-09T09:29:42;16.90;99.90
48946;DHT22;34999;50.940;3.998;2022-09-09T09:32:34;16.90;99.90
48946;DHT22;34999;50.940;3.998;2022-09-09T09:35:10;17.00;99.90
48946;DHT22;34999;50.940;3.998;2022-09-09T09:37:41;17.00;99.90
48946;DHT22;34999;50.940;3.998;2022-09-09T09:40:30;17.00;99.90
48946;DHT22;34999;50.940;3.998;2022-09-09T09:43:03;17.00;99.90
48946;DHT22;34999;50.940;3.998;2022-09-09T09:45:41;17.10;99.90
48946;DHT22;34999;50.940;3.998;2022-09-09T09:48:31;17.20;99.90
48946;DHT22;34999;50.940;3.998;2022-09-09T09:51:02;17.30;99.90
48946;DHT22;34999;50.940;3.998;2022-09-09T09:53:36;17.40;99.90
48946;DHT22;34999;50.940;3.998;2022-09-09T09:56:09;17.40;99.90
48946;DHT22;34999;50.940;3.998;2022-09-09T09:58:50;17.50;99.90
48946;DHT22;34999;50.940;3.998;2022-09-09T10:01:21;17.60;99.90
48946;DHT22;34999;50.940;3.998;2022-09-09T10:04:00;17.70;99.90
48946;DHT22;34999;50.940;3.998;2022-09-09T10:06:33;17.80;99.90
48946;DHT22;34999;50.940;3.998;2022-09-09T10:09:04;18.00;99.90
48946;DHT22;34999;50.940;3.998;2022-09-09T10:11:55;18.00;99.90
48946;DHT22;34999;50.940;3.998;2022-09-09T10:14:31;18.00;99.90
48946;DHT22;34999;50.940;3.998;2022-09-09T10:17:15;17.90;99.90
48946;DHT22;34999;50.940;3.998;2022-09-09T10:19:53;17.70;99.90
48946;DHT22;34999;50.940;3.998;2022-09-09T10:22:27;17.70;99.90
48946;DHT22;34999;50.940;3.998;2022-09-09T10:25:23;17.60;99.90
48946;DHT22;34999;50.940;3.998;2022-09-09T10:28:16;17.50;99.90
48946;DHT22;34999;50.940;3.998;2022-09-09T10:31:00;17.50;99.90
48946;DHT22;34999;50.940;3.998;2022-09-09T10:33:35;17.60;99.90
48946;DHT22;34999;50.940;3.998;2022-09-09T10:36:13;17.60;99.90
48946;DHT22;34999;50.940;3.998;2022-09-09T10:38:43;17.60;99.90
48946;DHT22;34999;50.940;3.998;2022-09-09T10:41:25;17.60;99.90
48946;DHT22;34999;50.940;3.998;2022-09-09T10:44:17;17.70;99.90
48946;DHT22;34999;50.940;3.998;2022-09-09T10:46:58;17.70;99.90
48946;DHT22;34999;50.940;3.998;2022-09-09T10:49:55;17.80;99.90
48946;DHT22;34999;50.940;3.998;2022-09-09T10:52:31;17.90;99.90
48946;DHT22;34999;50.940;3.998;2022-09-09T10:55:06;18.00;99.90
48946;DHT22;34999;50.940;3.998;2022-09-09T10:57:40;18.00;99.90
48946;DHT22;34999;50.940;3.998;2022-09-09T11:00:16;18.10;99.90
48946;DHT22;34999;50.940;3.998;2022-09-09T11:02:51;18.10;99.90
48946;DHT22;34999;50.940;3.998;2022-09-09T11:05:23;18.10;99.90
48946;DHT22;34999;50.940;3.998;2022-09-09T11:07:57;18.30;99.90
48946;DHT22;34999;50.940;3.998;2022-09-09T11:10:34;18.40;99.90
48946;DHT22;34999;50.940;3.998;2022-09-09T11:13:10;18.60;99.90
48946;DHT22;34999;50.940;3.998;2022-09-09T11:15:46;18.70;99.90
48946;DHT22;34999;50.940;3.998;2022-09-09T11:18:19;18.80;99.90
48946;DHT22;34999;50.940;3.998;2022-09-09T11:20:50;18.90;99.90
48946;DHT22;34999;50.940;3.998;2022-09-09T11:23:24;19.00;99.90
48946;DHT22;34999;50.940;3.998;2022-09-09T11:25:56;19.00;99.90
48946;DHT22;34999;50.940;3.998;2022-09-09T11:28:40;19.10;99.90
48946;DHT22;34999;50.940;3.998;2022-09-09T11:31:32;18.90;99.90
48946;DHT22;34999;50.940;3.998;2022-09-09T11:34:25;18.90;99.90
48946;DHT22;34999;50.940;3.998;2022-09-09T11:40:14;18.70;99.90
48946;DHT22;34999;50.940;3.998;2022-09-09T11:42:44;18.70;99.90
48946;DHT22;34999;50.940;3.998;2022-09-09T11:45:23;18.70;99.90
48946;DHT22;34999;50.940;3.998;2022-09-09T11:47:53;18.80;99.90
48946;DHT22;34999;50.940;3.998;2022-09-09T11:50:32;19.00;99.90
48946;DHT22;34999;50.940;3.998;2022-09-09T11:53:20;19.30;99.90
48946;DHT22;34999;50.940;3.998;2022-09-09T11:56:07;19.40;99.90
48946;DHT22;34999;50.940;3.998;2022-09-09T11:58:42;19.50;99.90
48946;DHT22;34999;50.940;3.998;2022-09-09T12:01:26;19.70;99.90
48946;DHT22;34999;50.940;3.998;2022-09-09T12:06:52;20.20;99.90
48946;DHT22;34999;50.940;3.998;2022-09-09T12:12:24;20.40;99.90
48946;DHT22;34999;50.940;3.998;2022-09-09T12:15:02;20.20;99.90
48946;DHT22;34999;50.940;3.998;2022-09-09T12:17:31;20.20;99.90
48946;DHT22;34999;50.940;3.998;2022-09-09T12:20:12;20.10;99.90
48946;DHT22;34999;50.940;3.998;2022-09-09T12:22:52;20.10;99.90
48946;DHT22;34999;50.940;3.998;2022-09-09T12:25:32;20.10;99.90
48946;DHT22;34999;50.940;3.998;2022-09-09T12:28:08;20.20;99.90
48946;DHT22;34999;50.940;3.998;2022-09-09T12:30:46;20.30;99.90
48946;DHT22;34999;50.940;3.998;2022-09-09T12:33:18;20.50;99.90
48946;DHT22;34999;50.940;3.998;2022-09-09T12:35:51;20.70;99.90
48946;DHT22;34999;50.940;3.998;2022-09-09T12:38:31;20.60;99.90
48946;DHT22;34999;50.940;3.998;2022-09-09T12:41:00;20.60;99.90
48946;DHT22;34999;50.940;3.998;2022-09-09T12:43:29;20.50;99.90
48946;DHT22;34999;50.940;3.998;2022-09-09T12:45:59;20.40;99.90
48946;DHT22;34999;50.940;3.998;2022-09-09T12:48:33;20.20;99.90
48946;DHT22;34999;50.940;3.998;2022-09-09T12:51:18;20.10;99.90
48946;DHT22;34999;50.940;3.998;2022-09-09T12:53:48;20.00;99.90
48946;DHT22;34999;50.940;3.998;2022-09-09T12:56:21;20.20;99.90
48946;DHT22;34999;50.940;3.998;2022-09-09T12:58:51;20.40;99.90
48946;DHT22;34999;50.940;3.998;2022-09-09T13:01:23;20.60;99.90
48946;DHT22;34999;50.940;3.998;2022-09-09T13:03:52;20.60;99.90
48946;DHT22;34999;50.940;3.998;2022-09-09T13:06:22;20.50;99.90
48946;DHT22;34999;50.940;3.998;2022-09-09T13:08:58;20.30;99.90
48946;DHT22;34999;50.940;3.998;2022-09-09T13:11:29;20.20;99.90
48946;DHT22;34999;50.940;3.998;2022-09-09T13:13:59;20.00;99.90
48946;DHT22;34999;50.940;3.998;2022-09-09T13:16:29;20.00;99.90
48946;DHT22;34999;50.940;3.998;2022-09-09T13:19:05;20.00;99.90
48946;DHT22;34999;50.940;3.998;2022-09-09T13:21:36;20.20;99.90
48946;DHT22;34999;50.940;3.998;2022-09-09T13:24:27;20.40;99.90
48946;DHT22;34999;50.940;3.998;2022-09-09T13:26:57;20.30;99.90
48946;DHT22;34999;50.940;3.998;2022-09-09T13:29:28;20.30;99.90
48946;DHT22;34999;50.940;3.998;2022-09-09T13:32:04;20.20;99.90
48946;DHT22;34999;50.940;3.998;2022-09-09T13:34:34;20.20;99.90
48946;DHT22;34999;50.940;3.998;2022-09-09T13:37:05;20.20;99.90
48946;DHT22;34999;50.940;3.998;2022-09-09T13:39:36;20.20;99.90
48946;DHT22;34999;50.940;3.998;2022-09-09T13:42:06;20.20;99.90
48946;DHT22;34999;50.940;3.998;2022-09-09T13:44:38;20.30;99.90
48946;DHT22;34999;50.940;3.998;2022-09-09T13:47:19;20.40;99.90
48946;DHT22;34999;50.940;3.998;2022-09-09T13:49:47;20.50;99.90
48946;DHT22;34999;50.940;3.998;2022-09-09T13:52:17;20.40;99.90
48946;DHT22;34999;50.940;3.998;2022-09-09T13:54:49;20.40;99.90
48946;DHT22;34999;50.940;3.998;2022-09-09T13:57:19;20.40;99.90
48946;DHT22;34999;50.940;3.998;2022-09-09T13:59:49;20.40;99.90
48946;DHT22;34999;50.940;3.998;2022-09-09T14:02:31;20.40;99.90
48946;DHT22;34999;50.940;3.998;2022-09-09T14:05:00;20.50;99.90
48946;DHT22;34999;50.940;3.998;2022-09-09T14:07:28;20.50;99.90
48946;DHT22;34999;50.940;3.998;2022-09-09T14:09:58;20.50;99.90
48946;DHT22;34999;50.940;3.998;2022-09-09T14:12:27;20.50;99.90
48946;DHT22;34999;50.940;3.998;2022-09-09T14:14:55;20.50;99.90
48946;DHT22;34999;50.940;3.998;2022-09-09T14:17:24;20.70;99.90
48946;DHT22;34999;50.940;3.998;2022-09-09T14:19:54;20.90;99.90
48946;DHT22;34999;50.940;3.998;2022-09-09T14:22:23;21.10;99.90
48946;DHT22;34999;50.940;3.998;2022-09-09T14:24:52;21.30;99.90
48946;DHT22;34999;50.940;3.998;2022-09-09T14:27:21;21.60;99.90
48946;DHT22;34999;50.940;3.998;2022-09-09T14:29:50;21.80;99.90
48946;DHT22;34999;50.940;3.998;2022-09-09T14:32:18;21.80;99.90
48946;DHT22;34999;50.940;3.998;2022-09-09T14:34:47;21.90;99.90
48946;DHT22;34999;50.940;3.998;2022-09-09T14:37:17;22.20;99.90
48946;DHT22;34999;50.940;3.998;2022-09-09T14:39:45;21.90;99.90
48946;DHT22;34999;50.940;3.998;2022-09-09T14:42:14;21.60;99.90
48946;DHT22;34999;50.940;3.998;2022-09-09T14:44:43;21.30;99.90
48946;DHT22;34999;50.940;3.998;2022-09-09T14:47:12;21.20;99.90
48946;DHT22;34999;50.940;3.998;2022-09-09T14:49:41;21.00;99.90
48946;DHT22;34999;50.940;3.998;2022-09-09T14:52:40;20.90;99.90
48946;DHT22;34999;50.940;3.998;2022-09-09T14:58:17;20.50;99.90
48946;DHT22;34999;50.940;3.998;2022-09-09T15:00:47;20.30;99.90
48946;DHT22;34999;50.940;3.998;2022-09-09T15:03:17;20.00;99.90
48946;DHT22;34999;50.940;3.998;2022-09-09T15:05:45;19.90;99.90
48946;DHT22;34999;50.940;3.998;2022-09-09T15:08:15;19.80;99.90
48946;DHT22;34999;50.940;3.998;2022-09-09T15:10:44;19.80;99.90
48946;DHT22;34999;50.940;3.998;2022-09-09T15:13:16;19.70;99.90
48946;DHT22;34999;50.940;3.998;2022-09-09T15:16:16;19.70;99.90
48946;DHT22;34999;50.940;3.998;2022-09-09T15:18:45;19.80;99.90
48946;DHT22;34999;50.940;3.998;2022-09-09T15:21:40;19.70;99.90
48946;DHT22;34999;50.940;3.998;2022-09-09T15:24:09;19.60;99.90
48946;DHT22;34999;50.940;3.998;2022-09-09T15:26:37;19.30;99.90
48946;DHT22;34999;50.940;3.998;2022-09-09T15:29:12;19.10;99.90
48946;DHT22;34999;50.940;3.998;2022-09-09T15:32:07;18.80;99.90
48946;DHT22;34999;50.940;3.998;2022-09-09T15:37:42;18.40;99.90
48946;DHT22;34999;50.940;3.998;2022-09-09T15:40:12;18.30;99.90
48946;DHT22;34999;50.940;3.998;2022-09-09T15:42:41;18.40;99.90
48946;DHT22;34999;50.940;3.998;2022-09-09T15:45:10;18.40;99.90
48946;DHT22;34999;50.940;3.998;2022-09-09T15:48:01;18.30;99.90
48946;DHT22;34999;50.940;3.998;2022-09-09T15:50:31;18.30;99.90
48946;DHT22;34999;50.940;3.998;2022-09-09T15:53:19;18.30;99.90
48946;DHT22;34999;50.940;3.998;2022-09-09T15:56:19;18.30;99.90
48946;DHT22;34999;50.940;3.998;2022-09-09T15:58:48;18.30;99.90
48946;DHT22;34999;50.940;3.998;2022-09-09T16:01:45;18.20;99.90
48946;DHT22;34999;50.940;3.998;2022-09-09T16:04:54;18.30;99.90
48946;DHT22;34999;50.940;3.998;2022-09-09T16:07:28;18.20;99.90
48946;DHT22;34999;50.940;3.998;2022-09-09T16:09:56;18.00;99.90
48946;DHT22;34999;50.940;3.998;2022-09-09T16:12:24;17.90;99.90
48946;DHT22;34999;50.940;3.998;2022-09-09T16:18:53;17.80;99.90
48946;DHT22;34999;50.940;3.998;2022-09-09T16:21:28;17.70;99.90
48946;DHT22;34999;50.940;3.998;2022-09-09T16:28:18;17.50;99.90
48946;DHT22;34999;50.940;3.998;2022-09-09T16:30:49;17.90;99.90
48946;DHT22;34999;50.940;3.998;2022-09-09T16:33:46;18.20;99.90
48946;DHT22;34999;50.940;3.998;2022-09-09T16:39:29;18.20;99.90